Airfield :
LOGIN :

Register | Disclaimer

   EN    FR    IT 

 










Legend :    VFR   Marginal VFR   IFR   Intensive IFR   Very Intensive IFR
Visi :
Ceiling :
>= 8 km
>= 3000ft
5 to 8 km
1000 to 3000 ft
1500m to 5 km
500 to 1000 ft
800 to 1500m
200 to 500 ft
< 800m
< 200 ft
Symbols :   Thunderstorms  Fog  Heavy snow  Heavy precipitations  Wind > 20 kt
SIGMETs :     Misc.  Thunderstorms  Icing  Turbulence  Mountain Waves  Volcanic Ashes






- Airport Elevation : 313 ft
- IATA code : LEH


LFOH - Le Havre Octeville

CURRENT METAR :
  • 070400Z AUTO 22002KT 0600 0400 R22/0900D FG FEW031 SCT043 04/03 Q1021

EXPIRED METARs :
  • 070330Z AUTO 21002KT 3600 BR BKN027 BKN032 BKN039 05/05 Q1021
  • 070300Z AUTO 19001KT 3300 BR FEW001/// BKN024/// BKN029/// //////TCU 05/05 Q1021
  • 070230Z AUTO 19002KT 4100 BR BKN025 BKN039 OVC047 05/05 Q1021
  • 070200Z AUTO 00000KT 3300 BR FEW017 BKN033 OVC040 05/05 Q1022
  • 070130Z AUTO 00000KT 2600 -RA BR BKN019/// OVC028/// //////TCU 05/05 Q1022

TAF TAF LFOH
Valid from the 06 at 12:00 until the 07 at 12:00 UTC


061100Z 0612/0712 18005KT 9999 BKN045
PROB30
TEMPO 0618/0710 3000 -SHRA SCT005 BKN012TCU
ATIS : +33 2 35 54 64 93



MET'MAP, your aeronautical weather chart ! - Copyright ORBIFLY December 2007 - Disclaimer

ORBIFLY MET'MAP TEAM :

Programming & Development : Alexandra Zaïnal
Original concept : Baudouin d'Aumeries
Technical & hardware support : Manuel Goepfert
Assistance : Marc-Olivier Méhu




SOURCES & CREDITS :

   NOAA